Terminal Aerodrome Forecast
Issued by NWS

Home | Current Version | Previous Version | Text Only | Print | Product List | Glossary On
Versions: 1 2 3 4 5 6 7 8 9 10 11 12 13 14 15 16
683
FTAK31 PAJN 101737
TAFASI
TAF
PASI 101737Z 1018/1118 VRB05KT P6SM FEW002 FEW010 OVC035
      TEMPO 1019/1023 11012KT 4SM -RA FEW002 SCT010 OVC025
     FM110000 11012G20KT P6SM -RA SCT040 OVC060 WS020/13030KT
     FM110300 14015G25KT 3SM -RA BR OVC010 WS020/16030KT
     FM111200 18012KT 5SM -SHRA SCT010 BKN025 BKN050=

USA.gov is the U.S. government's official web portal to all federal, state and local government web resources and services.